Time;durP1;ratioP1;P1;durP2;ratioP2;P2;SDS_P1;SDS_P2;PMS_P1;PMS_P2;Temp;Humidity;BMP_temperature;BMP_pressure;BME280_temperature;BME280_humidity;BME280_pressure;Samples;Min_cycle;Max_cycle;Signal;HPM_P1;HPM_P2
2022/05/04 00:00:49;;;;;;;9.70;4.65;;;;;;;;;;4972478;28;20039;-70
2022/05/04 00:03:16;;;;;;;6.80;4.55;;;;;;;;;;4974268;28;20034;-70
2022/05/04 00:05:42;;;;;;;7.05;4.47;;;;;;;;;;4976419;28;20030;-71
2022/05/04 00:08:08;;;;;;;6.95;5.05;;;;;;;;;;4991438;28;20038;-69
2022/05/04 00:10:36;;;;;;;8.23;4.68;;;;;;;;;;4976422;28;20489;-71
2022/05/04 00:13:02;;;;;;;8.75;5.82;;;;;;;;;;4976185;28;20485;-71
2022/05/04 00:15:28;;;;;;;10.57;6.05;;;;;;;;;;4976088;28;20067;-70
2022/05/04 00:17:54;;;;;;;15.45;8.70;;;;;;;;;;4976113;28;20035;-67
2022/05/04 00:20:20;;;;;;;10.27;7.43;;;;;;;;;;4968698;28;20059;-70
2022/05/04 00:22:45;;;;;;;12.25;8.10;;;;;;;;;;4956861;28;20144;-67
2022/05/04 00:25:12;;;;;;;15.27;7.20;;;;;;;;;;4956654;28;20493;-68
2022/05/04 00:27:38;;;;;;;10.05;6.55;;;;;;;;;;4959786;28;20053;-66
2022/05/04 00:30:05;;;;;;;11.02;6.72;;;;;;;;;;4961181;28;20479;-66
2022/05/04 00:32:31;;;;;;;14.43;7.22;;;;;;;;;;4956627;29;20086;-67
2022/05/04 00:34:57;;;;;;;12.50;6.75;;;;;;;;;;4956209;29;20422;-68
2022/05/04 00:37:23;;;;;;;11.23;7.13;;;;;;;;;;4955661;28;20031;-68
2022/05/04 00:39:49;;;;;;;10.98;8.15;;;;;;;;;;4956642;28;20502;-67
2022/05/04 00:42:20;;;;;;;12.60;8.10;;;;;;;;;;4956508;28;20034;-67
2022/05/04 00:44:49;;;;;;;13.95;8.60;;;;;;;;;;4956360;28;20536;-67
2022/05/04 00:47:15;;;;;;;14.80;8.98;;;;;;;;;;4955358;28;20049;-67
2022/05/04 00:49:43;;;;;;;13.05;9.43;;;;;;;;;;4955868;28;20039;-68
2022/05/04 00:52:11;;;;;;;14.25;9.88;;;;;;;;;;4957374;28;20027;-68
2022/05/04 00:54:37;;;;;;;14.63;8.68;;;;;;;;;;4957346;28;20035;-68
2022/05/04 00:57:05;;;;;;;11.40;8.05;;;;;;;;;;4957201;28;20080;-68
2022/05/04 00:59:32;;;;;;;11.95;7.60;;;;;;;;;;4956484;28;20110;-67
2022/05/04 01:01:58;;;;;;;18.00;8.93;;;;;;;;;;4957178;28;20039;-66
2022/05/04 01:04:24;;;;;;;14.68;9.30;;;;;;;;;;4957170;28;20109;-67
2022/05/04 01:06:50;;;;;;;13.35;8.10;;;;;;;;;;4957016;28;20513;-67
2022/05/04 01:09:16;;;;;;;12.93;8.60;;;;;;;;;;4957221;28;20039;-68
2022/05/04 01:11:43;;;;;;;13.85;7.80;;;;;;;;;;4951567;28;20041;-67
2022/05/04 01:14:11;;;;;;;14.32;8.05;;;;;;;;;;4955922;28;20031;-67
2022/05/04 01:16:40;;;;;;;14.13;8.68;;;;;;;;;;4955997;28;20378;-67
2022/05/04 01:19:06;;;;;;;14.93;7.97;;;;;;;;;;4955812;28;20379;-67
2022/05/04 01:21:33;;;;;;;10.73;7.57;;;;;;;;;;4955354;28;20074;-67
2022/05/04 01:23:59;;;;;;;12.25;7.88;;;;;;;;;;4955062;28;20031;-67
2022/05/04 01:26:26;;;;;;;10.88;7.20;;;;;;;;;;4955275;28;20023;-67
2022/05/04 01:28:51;;;;;;;10.27;6.88;;;;;;;;;;4955397;28;20049;-68
2022/05/04 01:31:17;;;;;;;11.82;6.60;;;;;;;;;;4955470;28;20031;-67
2022/05/04 01:33:43;;;;;;;13.63;7.72;;;;;;;;;;4955034;28;20064;-68
2022/05/04 01:36:09;;;;;;;9.50;6.88;;;;;;;;;;4954324;28;20038;-68
2022/05/04 01:38:35;;;;;;;9.93;6.68;;;;;;;;;;4970423;28;20043;-68
2022/05/04 01:41:02;;;;;;;11.32;7.75;;;;;;;;;;4954939;28;20382;-67
2022/05/04 01:43:28;;;;;;;11.57;7.00;;;;;;;;;;4969791;28;20050;-68
2022/05/04 01:45:54;;;;;;;11.75;7.28;;;;;;;;;;4974386;28;20027;-67
2022/05/04 01:48:20;;;;;;;11.30;7.20;;;;;;;;;;4969180;28;20058;-67
2022/05/04 01:50:46;;;;;;;10.38;7.65;;;;;;;;;;4954771;28;20042;-67
2022/05/04 01:53:13;;;;;;;16.35;7.93;;;;;;;;;;4955288;28;20031;-67
2022/05/04 01:55:40;;;;;;;12.23;7.07;;;;;;;;;;4954617;29;20394;-68
2022/05/04 01:58:07;;;;;;;7.85;5.90;;;;;;;;;;4954639;28;20120;-66
2022/05/04 02:00:34;;;;;;;11.05;6.80;;;;;;;;;;4954671;29;20107;-66
2022/05/04 02:03:00;;;;;;;10.18;6.25;;;;;;;;;;4954824;29;20058;-69
2022/05/04 02:05:27;;;;;;;14.02;6.78;;;;;;;;;;4964054;28;20054;-67
2022/05/04 02:07:54;;;;;;;10.85;6.53;;;;;;;;;;4954832;28;20043;-68
2022/05/04 02:10:20;;;;;;;9.10;7.10;;;;;;;;;;4955140;29;20074;-70
2022/05/04 02:12:46;;;;;;;11.43;6.93;;;;;;;;;;4954281;28;20035;-67
2022/05/04 02:15:12;;;;;;;11.40;7.60;;;;;;;;;;4952115;28;20026;-67
2022/05/04 02:17:38;;;;;;;12.60;7.28;;;;;;;;;;4958516;28;20046;-67
2022/05/04 02:20:05;;;;;;;10.68;7.80;;;;;;;;;;4962473;29;20102;-68
2022/05/04 02:22:31;;;;;;;10.95;7.47;;;;;;;;;;4954244;28;20549;-69
2022/05/04 02:24:57;;;;;;;12.68;6.97;;;;;;;;;;4954621;28;20039;-67
2022/05/04 02:27:23;;;;;;;9.57;6.47;;;;;;;;;;4954018;29;20042;-67
2022/05/04 02:29:49;;;;;;;12.70;7.22;;;;;;;;;;4954442;29;20051;-67
2022/05/04 02:32:15;;;;;;;9.00;6.85;;;;;;;;;;4969379;28;20154;-67
2022/05/04 02:40:12;;;;;;;9.32;6.38;;;;;;;;;;4954403;29;20043;-68
2022/05/04 02:42:38;;;;;;;6.93;6.00;;;;;;;;;;4954455;29;20031;-67
2022/05/04 02:45:05;;;;;;;11.13;6.50;;;;;;;;;;4953987;28;20026;-68
2022/05/04 02:47:31;;;;;;;11.10;6.38;;;;;;;;;;4973063;28;20022;-67
2022/05/04 02:49:57;;;;;;;13.10;6.90;;;;;;;;;;4973498;28;20050;-70
2022/05/04 02:52:23;;;;;;;9.15;6.85;;;;;;;;;;4972922;28;20027;-69
2022/05/04 02:54:49;;;;;;;10.23;7.35;;;;;;;;;;4973289;28;20034;-66
2022/05/04 02:57:15;;;;;;;13.10;7.80;;;;;;;;;;4973262;28;20529;-68
2022/05/04 02:59:41;;;;;;;9.15;7.15;;;;;;;;;;4973040;28;20061;-67
2022/05/04 03:04:51;;;;;;;8.85;6.85;;;;;;;;;;4972748;28;20069;-70
2022/05/04 03:07:17;;;;;;;14.73;8.60;;;;;;;;;;4972767;28;20070;-71
2022/05/04 03:09:43;;;;;;;11.45;7.60;;;;;;;;;;4973012;28;20055;-68
2022/05/04 03:12:09;;;;;;;9.30;7.10;;;;;;;;;;4972935;28;20027;-68
2022/05/04 03:14:35;;;;;;;12.43;7.63;;;;;;;;;;4972615;28;20035;-69
2022/05/04 03:17:00;;;;;;;12.68;7.65;;;;;;;;;;4956259;28;20035;-72
2022/05/04 03:19:26;;;;;;;12.80;7.95;;;;;;;;;;4954082;28;20047;-70
2022/05/04 03:21:52;;;;;;;12.50;8.38;;;;;;;;;;4953836;28;20059;-68
2022/05/04 03:24:19;;;;;;;11.95;8.25;;;;;;;;;;4953847;28;20027;-69
2022/05/04 03:26:45;;;;;;;12.48;8.70;;;;;;;;;;4953387;28;20038;-68
2022/05/04 03:29:11;;;;;;;18.80;8.75;;;;;;;;;;4953459;29;20405;-68
2022/05/04 03:31:37;;;;;;;13.68;8.95;;;;;;;;;;4952757;28;20081;-68
2022/05/04 03:34:04;;;;;;;21.92;9.02;;;;;;;;;;4953193;28;20110;-68
2022/05/04 03:36:30;;;;;;;19.38;8.85;;;;;;;;;;4953389;28;20123;-71
2022/05/04 03:38:56;;;;;;;21.20;9.35;;;;;;;;;;4952603;28;20035;-68
2022/05/04 03:41:22;;;;;;;18.70;8.88;;;;;;;;;;4953575;29;20094;-69
2022/05/04 03:43:48;;;;;;;12.77;8.40;;;;;;;;;;4953270;29;20039;-67
2022/05/04 03:46:16;;;;;;;9.32;7.35;;;;;;;;;;4953397;28;20027;-69
2022/05/04 03:48:48;;;;;;;14.35;8.80;;;;;;;;;;4953051;29;20442;-70
2022/05/04 03:51:15;;;;;;;26.02;11.80;;;;;;;;;;4952751;28;20103;-69
2022/05/04 03:53:42;;;;;;;17.35;9.13;;;;;;;;;;4952931;29;20054;-69
2022/05/04 03:56:08;;;;;;;27.10;10.30;;;;;;;;;;4952572;28;20043;-68
2022/05/04 03:58:34;;;;;;;30.48;10.80;;;;;;;;;;4952114;29;20138;-68
2022/05/04 04:01:01;;;;;;;19.60;10.00;;;;;;;;;;4967378;28;20043;-67
2022/05/04 04:03:27;;;;;;;18.52;9.43;;;;;;;;;;4968053;28;20035;-68
2022/05/04 04:05:53;;;;;;;53.03;13.32;;;;;;;;;;4953031;28;20031;-70
2022/05/04 04:08:19;;;;;;;34.60;11.38;;;;;;;;;;4953296;29;20035;-67
2022/05/04 04:10:44;;;;;;;25.15;10.90;;;;;;;;;;4952924;28;20039;-72
2022/05/04 04:13:10;;;;;;;15.68;10.45;;;;;;;;;;4953007;29;20074;-68
2022/05/04 04:15:36;;;;;;;11.07;8.85;;;;;;;;;;4954486;29;20035;-67
2022/05/04 04:18:02;;;;;;;22.05;12.07;;;;;;;;;;4956405;29;20063;-70
2022/05/04 04:23:12;;;;;;;16.48;10.00;;;;;;;;;;4953815;29;20031;-69
2022/05/04 04:25:38;;;;;;;16.55;9.55;;;;;;;;;;4952981;28;20046;-68
2022/05/04 04:28:05;;;;;;;19.50;10.48;;;;;;;;;;4953111;28;20472;-68
2022/05/04 04:30:31;;;;;;;23.02;10.50;;;;;;;;;;4953157;29;20046;-69
2022/05/04 04:32:57;;;;;;;14.82;10.18;;;;;;;;;;4953120;28;20382;-70
2022/05/04 04:35:22;;;;;;;15.25;9.82;;;;;;;;;;4952649;29;20032;-72
2022/05/04 04:37:48;;;;;;;26.42;11.02;;;;;;;;;;4952426;29;20039;-72
2022/05/04 04:40:14;;;;;;;40.88;12.07;;;;;;;;;;4951932;29;20031;-73
2022/05/04 04:42:40;;;;;;;41.97;13.02;;;;;;;;;;4951230;28;20033;-71
2022/05/04 04:45:06;;;;;;;45.97;13.35;;;;;;;;;;4951583;28;20110;-73
2022/05/04 04:47:32;;;;;;;20.30;10.95;;;;;;;;;;4949078;28;20031;-70
2022/05/04 04:49:58;;;;;;;27.98;9.55;;;;;;;;;;4955176;28;20028;-75
2022/05/04 04:52:24;;;;;;;31.95;10.60;;;;;;;;;;4954854;28;20031;-72
2022/05/04 04:54:50;;;;;;;19.60;9.93;;;;;;;;;;4955440;28;20027;-77
2022/05/04 04:57:16;;;;;;;21.05;11.95;;;;;;;;;;4956256;29;20042;-71
2022/05/04 04:59:43;;;;;;;25.92;12.13;;;;;;;;;;4956029;28;20138;-73
2022/05/04 05:02:10;;;;;;;33.03;13.88;;;;;;;;;;4955703;28;20039;-69
2022/05/04 05:04:36;;;;;;;30.33;13.18;;;;;;;;;;4956002;29;20039;-73
2022/05/04 05:07:02;;;;;;;32.70;13.07;;;;;;;;;;4956196;29;20122;-74
2022/05/04 05:09:27;;;;;;;19.60;12.45;;;;;;;;;;4956444;28;20422;-70
2022/05/04 05:11:53;;;;;;;27.05;11.95;;;;;;;;;;4956189;29;20071;-71
2022/05/04 05:17:04;;;;;;;39.15;13.90;;;;;;;;;;4956382;29;20065;-72
2022/05/04 05:19:30;;;;;;;26.88;12.50;;;;;;;;;;4955941;28;20397;-71
2022/05/04 05:21:56;;;;;;;28.13;12.68;;;;;;;;;;4956015;28;20118;-70
2022/05/04 05:24:21;;;;;;;16.77;12.45;;;;;;;;;;4956206;29;20127;-72
2022/05/04 05:26:47;;;;;;;23.63;12.45;;;;;;;;;;4955970;29;20378;-71
2022/05/04 05:29:13;;;;;;;28.33;11.80;;;;;;;;;;4955949;29;20030;-73
2022/05/04 05:31:39;;;;;;;16.70;9.80;;;;;;;;;;4955676;28;20059;-71
2022/05/04 05:34:04;;;;;;;14.77;8.77;;;;;;;;;;4955732;29;20090;-73
2022/05/04 05:36:30;;;;;;;30.35;17.55;;;;;;;;;;4956227;29;20453;-74
2022/05/04 05:38:56;;;;;;;24.88;8.55;;;;;;;;;;4956113;29;20038;-73
2022/05/04 05:41:23;;;;;;;19.98;7.70;;;;;;;;;;4955838;28;20039;-73
2022/05/04 05:43:52;;;;;;;17.33;8.93;;;;;;;;;;4952666;28;20375;-71
2022/05/04 05:46:18;;;;;;;13.15;8.20;;;;;;;;;;4955663;28;20031;-75
2022/05/04 05:48:47;;;;;;;28.63;9.15;;;;;;;;;;4955581;28;20023;-73
2022/05/04 05:51:13;;;;;;;9.30;6.78;;;;;;;;;;4955862;28;20089;-72
2022/05/04 05:53:39;;;;;;;21.55;8.07;;;;;;;;;;4956158;29;20030;-70
2022/05/04 05:56:05;;;;;;;11.90;5.78;;;;;;;;;;4955986;29;20470;-71
2022/05/04 05:58:31;;;;;;;10.70;6.20;;;;;;;;;;4955889;29;20034;-70
2022/05/04 06:00:57;;;;;;;19.85;7.03;;;;;;;;;;4955117;28;20039;-70
2022/05/04 06:03:22;;;;;;;15.38;7.55;;;;;;;;;;4955592;28;20049;-71
2022/05/04 06:05:50;;;;;;;12.25;7.25;;;;;;;;;;4955717;28;20047;-70
2022/05/04 06:08:15;;;;;;;11.30;6.55;;;;;;;;;;4955592;28;20098;-70
2022/05/04 06:10:41;;;;;;;10.70;7.00;;;;;;;;;;4955700;29;20144;-71
2022/05/04 06:13:07;;;;;;;10.77;7.10;;;;;;;;;;4956185;29;20027;-71
2022/05/04 06:15:33;;;;;;;16.33;8.68;;;;;;;;;;4961669;29;20098;-73
2022/05/04 06:18:01;;;;;;;19.88;8.63;;;;;;;;;;4958141;29;20035;-75
2022/05/04 06:20:27;;;;;;;10.63;7.25;;;;;;;;;;4955925;28;20035;-77
2022/05/04 06:22:53;;;;;;;18.10;7.57;;;;;;;;;;4970560;28;20023;-73
2022/05/04 06:25:19;;;;;;;15.68;7.43;;;;;;;;;;4955703;28;20042;-74
2022/05/04 06:27:45;;;;;;;25.45;8.38;;;;;;;;;;4954893;29;20155;-72
2022/05/04 06:35:40;;;;;;;21.05;7.28;;;;;;;;;;4935710;29;20031;-71
2022/05/04 06:38:06;;;;;;;31.60;6.93;;;;;;;;;;4935851;29;20051;-72
2022/05/04 06:40:32;;;;;;;17.63;7.68;;;;;;;;;;4935599;29;20054;-71
2022/05/04 06:42:59;;;;;;;11.82;6.45;;;;;;;;;;4935189;29;20281;-71
2022/05/04 06:45:25;;;;;;;16.65;6.70;;;;;;;;;;4935128;29;20518;-72
2022/05/04 06:47:51;;;;;;;8.05;5.65;;;;;;;;;;4935165;29;20110;-71
2022/05/04 06:50:17;;;;;;;20.75;6.63;;;;;;;;;;4935468;29;20028;-70
2022/05/04 06:52:42;;;;;;;9.68;6.57;;;;;;;;;;4935173;29;20038;-69
2022/05/04 06:55:09;;;;;;;13.05;6.35;;;;;;;;;;4935219;29;20107;-71
2022/05/04 06:57:36;;;;;;;13.30;6.20;;;;;;;;;;4935085;29;20126;-70
2022/05/04 07:00:04;;;;;;;9.77;6.32;;;;;;;;;;4935282;29;20123;-70
2022/05/04 07:02:32;;;;;;;15.15;6.38;;;;;;;;;;4934967;29;20114;-71
2022/05/04 07:04:59;;;;;;;10.20;5.15;;;;;;;;;;4934714;29;20406;-71
2022/05/04 07:07:25;;;;;;;11.95;5.55;;;;;;;;;;4933675;29;20043;-71
2022/05/04 07:09:51;;;;;;;29.38;6.70;;;;;;;;;;4934830;29;20054;-70
2022/05/04 07:12:17;;;;;;;9.30;5.50;;;;;;;;;;4934736;29;20028;-73
2022/05/04 07:14:43;;;;;;;13.38;5.47;;;;;;;;;;4934966;29;20040;-71
2022/05/04 07:17:09;;;;;;;13.93;5.20;;;;;;;;;;4935105;29;20083;-73
2022/05/04 07:19:34;;;;;;;9.77;4.85;;;;;;;;;;4934744;29;20053;-71
2022/05/04 07:22:00;;;;;;;8.77;4.68;;;;;;;;;;4949390;29;20475;-72
2022/05/04 07:24:26;;;;;;;13.93;5.80;;;;;;;;;;4934883;29;20068;-72
2022/05/04 07:26:52;;;;;;;13.35;5.63;;;;;;;;;;4934426;29;20475;-73
2022/05/04 07:29:18;;;;;;;15.30;5.75;;;;;;;;;;4949404;29;20097;-73
2022/05/04 07:31:44;;;;;;;9.00;4.90;;;;;;;;;;4934233;29;20079;-72
2022/05/04 07:34:11;;;;;;;13.48;5.10;;;;;;;;;;4934147;29;20028;-75
2022/05/04 07:36:36;;;;;;;10.55;5.78;;;;;;;;;;4942271;29;20073;-76
2022/05/04 07:39:02;;;;;;;11.52;5.85;;;;;;;;;;4953867;29;20133;-75
2022/05/04 07:44:13;;;;;;;9.27;6.05;;;;;;;;;;4953732;29;20126;-74
2022/05/04 07:46:38;;;;;;;15.55;6.70;;;;;;;;;;4953753;29;20463;-73
2022/05/04 07:49:05;;;;;;;7.82;5.97;;;;;;;;;;4953899;29;20039;-73
2022/05/04 07:51:31;;;;;;;13.55;6.43;;;;;;;;;;4953814;29;20023;-74
2022/05/04 07:53:57;;;;;;;11.82;6.00;;;;;;;;;;4953468;28;20046;-71
2022/05/04 07:56:22;;;;;;;9.32;5.57;;;;;;;;;;4953450;29;20028;-73
2022/05/04 07:58:48;;;;;;;11.85;6.30;;;;;;;;;;4953594;29;20039;-73
2022/05/04 08:04:17;;;;;;;7.00;5.50;;;;;;;;;;4953144;29;20043;-73
2022/05/04 08:06:43;;;;;;;;;;;;;;;;;;4953856;29;20536;-73
2022/05/04 08:09:08;;;;;;;9.32;5.70;;;;;;;;;;4953989;28;19914;-74
2022/05/04 08:11:34;;;;;;;15.00;6.20;;;;;;;;;;4953639;29;20502;-75
2022/05/04 08:14:00;;;;;;;15.68;6.10;;;;;;;;;;4953814;29;20114;-74
2022/05/04 08:16:26;;;;;;;15.88;6.10;;;;;;;;;;4953383;29;20035;-72
2022/05/04 08:18:52;;;;;;;9.77;5.32;;;;;;;;;;4953184;29;20559;-72
2022/05/04 08:21:17;;;;;;;8.65;5.75;;;;;;;;;;4953318;29;20043;-74
2022/05/04 08:23:43;;;;;;;12.80;6.63;;;;;;;;;;4953638;28;20023;-74
2022/05/04 08:26:11;;;;;;;19.30;7.13;;;;;;;;;;4957420;29;20031;-73
2022/05/04 08:28:36;;;;;;;9.88;5.68;;;;;;;;;;4951269;29;20028;-73
2022/05/04 08:31:03;;;;;;;10.35;5.70;;;;;;;;;;4938269;29;20415;-72
2022/05/04 08:33:29;;;;;;;10.70;5.07;;;;;;;;;;4952712;29;20031;-72
2022/05/04 08:35:55;;;;;;;9.65;5.55;;;;;;;;;;4937895;29;20054;-75
2022/05/04 08:38:22;;;;;;;11.50;5.90;;;;;;;;;;4937784;29;20042;-75
2022/05/04 08:40:50;;;;;;;8.52;5.25;;;;;;;;;;4941591;29;20031;-75
2022/05/04 08:43:18;;;;;;;6.80;5.28;;;;;;;;;;4956968;28;20023;-73
2022/05/04 08:45:45;;;;;;;8.65;5.07;;;;;;;;;;4956311;29;20031;-73
2022/05/04 08:48:12;;;;;;;16.33;6.63;;;;;;;;;;4956510;29;20035;-73
2022/05/04 08:50:40;;;;;;;7.97;6.07;;;;;;;;;;4956405;29;20119;-73
2022/05/04 08:53:07;;;;;;;12.73;6.10;;;;;;;;;;4956344;29;20023;-75
2022/05/04 08:55:37;;;;;;;6.70;5.65;;;;;;;;;;4956025;29;20050;-74
2022/05/04 08:58:04;;;;;;;10.90;6.07;;;;;;;;;;4956094;28;20035;-74
2022/05/04 09:00:29;;;;;;;12.85;7.10;;;;;;;;;;4956275;28;20098;-73
2022/05/04 09:02:55;;;;;;;9.30;6.00;;;;;;;;;;4956489;28;20120;-72
2022/05/04 09:05:26;;;;;;;10.82;6.35;;;;;;;;;;4956211;29;20057;-73
2022/05/04 09:07:55;;;;;;;23.77;8.52;;;;;;;;;;4956464;28;20365;-73
2022/05/04 09:10:22;;;;;;;10.30;6.97;;;;;;;;;;4956721;28;20079;-73
2022/05/04 09:12:49;;;;;;;7.85;6.15;;;;;;;;;;4956366;28;20035;-73
2022/05/04 09:15:20;;;;;;;9.07;6.55;;;;;;;;;;4958523;29;20019;-72
2022/05/04 09:17:46;;;;;;;7.80;5.72;;;;;;;;;;4952248;28;20036;-73
2022/05/04 09:20:55;;;;;;;8.95;5.80;;;;;;;;;;4956501;28;20031;-74
2022/05/04 09:23:01;;;;;;;8.50;6.18;;;;;;;;;;4960568;28;20060;-73
2022/05/04 09:25:27;;;;;;;8.60;6.85;;;;;;;;;;4955791;28;20106;-72
2022/05/04 09:27:52;;;;;;;7.03;5.38;;;;;;;;;;4956366;29;20031;-72
2022/05/04 09:30:24;;;;;;;8.32;5.63;;;;;;;;;;4955685;29;20082;-73
2022/05/04 09:32:51;;;;;;;6.10;5.25;;;;;;;;;;4970409;28;20042;-72
2022/05/04 09:35:17;;;;;;;11.70;6.63;;;;;;;;;;4953795;28;20042;-72
2022/05/04 09:46:03;;;;;;;8.10;5.55;;;;;;;;;;4955271;29;20566;-72
2022/05/04 09:48:34;;;;;;;12.20;5.90;;;;;;;;;;4955737;29;20106;-71
2022/05/04 09:51:09;;;;;;;6.20;5.20;;;;;;;;;;4955322;29;20039;-72
2022/05/04 09:53:36;;;;;;;10.18;5.05;;;;;;;;;;4969530;28;20043;-71
2022/05/04 09:56:03;;;;;;;8.20;5.22;;;;;;;;;;4955363;28;20538;-72
2022/05/04 09:58:30;;;;;;;6.80;5.40;;;;;;;;;;4970071;28;20048;-72
2022/05/04 10:00:58;;;;;;;5.40;4.40;;;;;;;;;;4955172;28;20371;-73
2022/05/04 10:03:25;;;;;;;7.43;5.20;;;;;;;;;;4954898;28;20534;-72
2022/05/04 10:05:53;;;;;;;7.97;5.28;;;;;;;;;;4954684;29;20055;-73
2022/05/04 10:08:19;;;;;;;6.00;5.22;;;;;;;;;;4954620;29;20043;-73
2022/05/04 10:10:47;;;;;;;6.63;5.35;;;;;;;;;;4954889;29;20102;-72
2022/05/04 10:13:16;;;;;;;6.93;5.15;;;;;;;;;;4955000;28;20379;-73
2022/05/04 10:15:42;;;;;;;6.43;4.55;;;;;;;;;;4954610;29;20035;-73
2022/05/04 10:18:14;;;;;;;8.93;5.40;;;;;;;;;;4954228;29;20443;-72
2022/05/04 10:20:50;;;;;;;7.50;4.82;;;;;;;;;;4954627;28;20038;-72
2022/05/04 10:23:20;;;;;;;6.93;4.85;;;;;;;;;;4954378;29;20472;-75
2022/05/04 10:25:46;;;;;;;6.70;5.22;;;;;;;;;;4954151;29;20478;-73
2022/05/04 10:28:14;;;;;;;6.28;5.28;;;;;;;;;;4954444;29;20110;-74
2022/05/04 10:30:59;;;;;;;11.80;6.50;;;;;;;;;;4968716;28;20043;-72
2022/05/04 10:33:32;;;;;;;11.70;7.13;;;;;;;;;;4954285;28;20031;-74
2022/05/04 10:36:17;;;;;;;7.43;5.35;;;;;;;;;;4952651;29;20033;-75
2022/05/04 10:38:44;;;;;;;7.28;4.97;;;;;;;;;;4953638;29;20039;-74
2022/05/04 10:41:11;;;;;;;6.60;4.78;;;;;;;;;;4953432;29;20102;-71
2022/05/04 10:43:47;;;;;;;5.05;4.18;;;;;;;;;;4954612;28;20087;-74
2022/05/04 10:46:21;;;;;;;7.82;5.25;;;;;;;;;;4954410;28;20036;-73
2022/05/04 10:49:08;;;;;;;8.20;4.97;;;;;;;;;;4952921;29;20086;-72
2022/05/04 10:51:36;;;;;;;7.70;5.40;;;;;;;;;;4954890;28;20043;-73
2022/05/04 10:54:10;;;;;;;6.05;4.65;;;;;;;;;;4954508;28;20028;-74
2022/05/04 10:56:42;;;;;;;7.22;5.03;;;;;;;;;;4954924;29;20047;-75
2022/05/04 10:59:09;;;;;;;6.97;5.03;;;;;;;;;;4954688;28;20446;-74
2022/05/04 11:01:37;;;;;;;7.78;5.32;;;;;;;;;;4954900;28;20031;-75
2022/05/04 11:04:11;;;;;;;5.32;4.65;;;;;;;;;;4954791;28;20035;-77
2022/05/04 11:06:43;;;;;;;7.70;5.70;;;;;;;;;;4954400;28;20043;-75
2022/05/04 11:09:16;;;;;;;8.57;5.45;;;;;;;;;;4954968;28;20047;-76
2022/05/04 11:11:48;;;;;;;7.33;6.13;;;;;;;;;;4955350;28;20046;-75
2022/05/04 11:14:16;;;;;;;6.27;5.07;;;;;;;;;;4954760;28;20043;-72
2022/05/04 11:16:43;;;;;;;8.25;5.25;;;;;;;;;;4953462;29;20269;-73
2022/05/04 11:19:11;;;;;;;8.38;5.40;;;;;;;;;;4954143;28;20122;-72
2022/05/04 11:21:37;;;;;;;9.55;5.00;;;;;;;;;;4960002;28;20062;-72
2022/05/04 11:24:05;;;;;;;7.05;5.00;;;;;;;;;;4955459;28;20043;-71
2022/05/04 11:26:37;;;;;;;6.00;4.60;;;;;;;;;;4952241;28;20138;-72
2022/05/04 11:29:08;;;;;;;12.13;5.40;;;;;;;;;;4934608;29;20047;-72
2022/05/04 11:31:34;;;;;;;6.82;4.90;;;;;;;;;;4934469;29;20221;-73
2022/05/04 11:34:01;;;;;;;9.48;5.97;;;;;;;;;;4944544;28;20142;-73
2022/05/04 11:36:28;;;;;;;7.65;5.18;;;;;;;;;;4973379;28;20053;-72
2022/05/04 11:38:53;;;;;;;10.25;5.25;;;;;;;;;;4972926;28;20093;-74
2022/05/04 11:41:20;;;;;;;10.20;6.68;;;;;;;;;;4973257;28;20050;-72
2022/05/04 11:43:54;;;;;;;6.47;5.07;;;;;;;;;;4959317;28;20090;-72
2022/05/04 11:46:21;;;;;;;9.27;5.68;;;;;;;;;;4953763;29;20083;-71
2022/05/04 11:48:47;;;;;;;7.18;5.68;;;;;;;;;;4953847;29;20114;-72
2022/05/04 11:51:16;;;;;;;9.80;5.55;;;;;;;;;;4953786;29;20082;-72
2022/05/04 11:53:43;;;;;;;9.57;5.47;;;;;;;;;;4953717;29;20039;-72
2022/05/04 11:56:09;;;;;;;7.93;5.13;;;;;;;;;;4953905;29;20451;-70
2022/05/04 11:58:37;;;;;;;9.10;5.57;;;;;;;;;;4954108;28;20039;-71
2022/05/04 12:01:08;;;;;;;7.90;4.88;;;;;;;;;;4957486;29;20043;-71
2022/05/04 12:03:38;;;;;;;7.25;4.90;;;;;;;;;;4957690;28;20046;-72
2022/05/04 12:06:09;;;;;;;6.28;5.00;;;;;;;;;;4957434;29;20039;-72
2022/05/04 12:08:35;;;;;;;5.13;4.20;;;;;;;;;;4957454;28;20031;-72
2022/05/04 12:11:00;;;;;;;7.00;5.32;;;;;;;;;;4972046;28;20115;-72
2022/05/04 12:13:27;;;;;;;8.23;5.55;;;;;;;;;;4957509;28;20050;-71
2022/05/04 12:15:56;;;;;;;9.05;5.47;;;;;;;;;;4957415;28;20070;-71
2022/05/04 12:18:28;;;;;;;9.40;5.88;;;;;;;;;;4957089;29;20113;-72
2022/05/04 12:20:54;;;;;;;6.55;5.38;;;;;;;;;;4955714;28;20035;-71
2022/05/04 12:23:20;;;;;;;9.15;4.97;;;;;;;;;;4956877;28;20508;-72
2022/05/04 12:25:46;;;;;;;8.10;5.18;;;;;;;;;;4954373;28;20031;-70
2022/05/04 12:28:12;;;;;;;6.60;4.80;;;;;;;;;;4956829;28;20038;-71
2022/05/04 12:33:33;;;;;;;10.25;5.50;;;;;;;;;;4957159;29;20560;-75
2022/05/04 12:36:06;;;;;;;10.13;4.97;;;;;;;;;;4957149;28;20379;-75
2022/05/04 12:38:33;;;;;;;6.10;5.05;;;;;;;;;;4955399;28;20398;-76
2022/05/04 12:41:01;;;;;;;6.68;5.10;;;;;;;;;;4954454;28;20037;-79
2022/05/04 12:43:35;;;;;;;9.82;7.35;;;;;;;;;;4956269;28;20046;-73
2022/05/04 12:46:02;;;;;;;7.53;5.57;;;;;;;;;;4954862;28;20035;-73
2022/05/04 12:48:28;;;;;;;7.90;5.35;;;;;;;;;;4947866;29;20053;-76
2022/05/04 12:50:58;;;;;;;7.45;5.60;;;;;;;;;;4958206;28;20110;-75
2022/05/04 12:53:25;;;;;;;8.70;5.10;;;;;;;;;;4950003;29;20035;-73
2022/05/04 12:58:36;;;;;;;6.45;5.15;;;;;;;;;;4945186;28;20054;-74
2022/05/04 13:01:04;;;;;;;7.28;5.40;;;;;;;;;;4950937;28;20027;-72
2022/05/04 13:03:30;;;;;;;6.80;4.68;;;;;;;;;;4953821;28;20081;-72
2022/05/04 13:05:56;;;;;;;5.57;4.65;;;;;;;;;;4954291;29;20153;-73
2022/05/04 13:08:22;;;;;;;8.57;4.95;;;;;;;;;;4941420;28;20502;-74
2022/05/04 13:10:49;;;;;;;8.00;5.28;;;;;;;;;;4952373;28;20031;-73
2022/05/04 13:13:18;;;;;;;8.10;4.07;;;;;;;;;;4953667;28;20126;-73
2022/05/04 13:15:51;;;;;;;5.88;4.38;;;;;;;;;;4954156;28;20035;-72
2022/05/04 13:18:18;;;;;;;6.70;4.97;;;;;;;;;;4953286;28;20410;-72
2022/05/04 13:20:44;;;;;;;7.25;4.57;;;;;;;;;;4946006;29;20042;-73
2022/05/04 13:23:10;;;;;;;6.15;4.32;;;;;;;;;;4948252;28;20398;-75
2022/05/04 13:25:36;;;;;;;9.95;4.47;;;;;;;;;;4952051;28;20039;-71
2022/05/04 13:28:03;;;;;;;6.25;4.22;;;;;;;;;;4955748;28;20035;-71
2022/05/04 13:30:29;;;;;;;6.80;4.57;;;;;;;;;;4956080;29;20086;-71
2022/05/04 13:32:55;;;;;;;6.22;5.18;;;;;;;;;;4955891;29;20046;-73
2022/05/04 13:35:21;;;;;;;7.22;5.13;;;;;;;;;;4955907;29;20031;-73
2022/05/04 13:37:48;;;;;;;5.07;4.28;;;;;;;;;;4955941;29;20059;-74
2022/05/04 13:40:14;;;;;;;5.50;4.40;;;;;;;;;;4956025;29;20358;-74
2022/05/04 13:42:43;;;;;;;6.72;4.50;;;;;;;;;;4956184;28;20043;-73
2022/05/04 13:45:10;;;;;;;7.45;4.50;;;;;;;;;;4956194;28;20033;-74
2022/05/04 13:47:37;;;;;;;7.50;4.60;;;;;;;;;;4970753;28;20043;-74
2022/05/04 13:50:04;;;;;;;8.75;4.88;;;;;;;;;;4955919;28;20031;-76
2022/05/04 13:55:15;;;;;;;6.70;4.50;;;;;;;;;;4951191;28;20038;-74
2022/05/04 13:57:40;;;;;;;6.93;4.45;;;;;;;;;;4950706;28;20387;-76
2022/05/04 14:00:08;;;;;;;5.78;4.75;;;;;;;;;;4955299;29;20474;-75
2022/05/04 14:02:37;;;;;;;7.40;4.97;;;;;;;;;;4955611;29;20051;-75
2022/05/04 14:05:04;;;;;;;5.43;4.50;;;;;;;;;;4955679;29;20398;-72
2022/05/04 14:07:29;;;;;;;8.80;4.55;;;;;;;;;;4955256;29;20498;-75
2022/05/04 14:09:55;;;;;;;6.90;4.55;;;;;;;;;;4955528;29;20031;-74
2022/05/04 14:12:21;;;;;;;5.35;4.43;;;;;;;;;;4955614;29;20334;-72
2022/05/04 14:15:02;;;;;;;5.35;4.55;;;;;;;;;;4955719;29;20040;-75
2022/05/04 14:17:28;;;;;;;7.85;5.07;;;;;;;;;;4954390;28;20498;-75
2022/05/04 14:19:54;;;;;;;6.80;4.25;;;;;;;;;;4955668;28;20024;-74
2022/05/04 14:22:20;;;;;;;7.38;5.15;;;;;;;;;;4952992;28;20042;-73
2022/05/04 14:24:45;;;;;;;4.80;3.90;;;;;;;;;;4955152;28;20494;-71
2022/05/04 14:27:11;;;;;;;7.80;4.43;;;;;;;;;;4955038;28;20054;-72
2022/05/04 14:29:38;;;;;;;7.38;4.85;;;;;;;;;;4954930;29;20035;-73
2022/05/04 14:32:04;;;;;;;7.32;4.72;;;;;;;;;;4955220;28;20058;-74
2022/05/04 14:34:31;;;;;;;8.75;5.05;;;;;;;;;;4955118;29;20066;-77
2022/05/04 14:36:57;;;;;;;5.55;4.60;;;;;;;;;;4955040;28;20046;-74
2022/05/04 14:39:23;;;;;;;8.85;4.40;;;;;;;;;;4954566;29;20035;-74
2022/05/04 14:41:48;;;;;;;7.82;4.38;;;;;;;;;;4946837;28;20477;-74
2022/05/04 14:44:15;;;;;;;8.32;4.43;;;;;;;;;;4952252;28;20032;-74
2022/05/04 14:46:40;;;;;;;9.15;4.32;;;;;;;;;;4953792;29;20035;-72
2022/05/04 14:49:06;;;;;;;10.07;5.10;;;;;;;;;;4954036;29;20042;-73
2022/05/04 14:51:33;;;;;;;6.28;4.18;;;;;;;;;;4952074;29;20078;-72
2022/05/04 14:53:59;;;;;;;5.38;4.45;;;;;;;;;;4953575;28;20034;-74
2022/05/04 14:56:25;;;;;;;6.55;4.43;;;;;;;;;;4953143;29;20106;-73
2022/05/04 14:58:50;;;;;;;5.85;4.22;;;;;;;;;;4952803;28;20597;-72
2022/05/04 15:01:16;;;;;;;6.22;4.35;;;;;;;;;;4953229;29;20102;-73
2022/05/04 15:06:27;;;;;;;8.13;4.60;;;;;;;;;;4951807;28;20478;-72
2022/05/04 15:08:54;;;;;;;8.85;5.20;;;;;;;;;;4951848;28;20038;-72
2022/05/04 15:11:22;;;;;;;7.18;4.68;;;;;;;;;;4949909;29;20118;-72
2022/05/04 15:13:48;;;;;;;5.70;4.47;;;;;;;;;;4949073;28;20032;-70
2022/05/04 15:16:14;;;;;;;6.70;4.43;;;;;;;;;;4951449;28;20031;-71
2022/05/04 15:18:40;;;;;;;6.25;4.55;;;;;;;;;;4951260;28;20039;-71